createdAt,value
2017-01-19T00:00:39.202Z,14.68
2017-01-19T00:01:48.172Z,14.63
2017-01-19T00:02:57.145Z,14.47
2017-01-19T00:04:06.163Z,14.39
2017-01-19T00:05:15.465Z,14.3
2017-01-19T00:06:24.433Z,14.14
2017-01-19T00:07:33.410Z,14.19
2017-01-19T00:08:42.378Z,14.06
2017-01-19T00:09:51.369Z,13.99
2017-01-19T00:11:00.339Z,14.02
2017-01-19T00:12:09.310Z,14.1
2017-01-19T00:13:18.285Z,13.98
2017-01-19T00:14:27.261Z,13.83
2017-01-19T00:15:36.242Z,13.84
2017-01-19T00:16:45.213Z,13.81
2017-01-19T00:17:54.214Z,13.76
2017-01-19T00:19:03.180Z,13.61
2017-01-19T00:20:12.164Z,13.5
2017-01-19T00:21:21.137Z,13.61
2017-01-19T00:22:30.107Z,13.72
2017-01-19T00:23:39.123Z,13.76
2017-01-19T00:24:48.097Z,13.66
2017-01-19T00:25:57.072Z,13.62
2017-01-19T00:27:06.046Z,13.54
2017-01-19T00:28:15.029Z,13.56
2017-01-19T00:29:23.995Z,13.46
2017-01-19T00:30:32.956Z,13.51
2017-01-19T00:31:41.929Z,13.49
2017-01-19T00:32:50.919Z,13.37
2017-01-19T00:33:59.902Z,13.47
2017-01-19T00:35:08.875Z,13.47
2017-01-19T00:36:17.859Z,13.39
2017-01-19T00:37:26.835Z,13.41
2017-01-19T00:38:35.803Z,13.31
2017-01-19T00:39:44.782Z,13.37
2017-01-19T00:40:53.746Z,13.36
2017-01-19T00:42:02.727Z,13.17
2017-01-19T00:43:11.686Z,13.13
2017-01-19T00:44:20.666Z,13.09
2017-01-19T00:45:29.642Z,13.07
2017-01-19T00:46:38.613Z,13.07
2017-01-19T00:47:47.583Z,13.12
2017-01-19T00:48:56.548Z,13.03
2017-01-19T00:50:05.554Z,13.02
2017-01-19T00:51:14.532Z,13.05
2017-01-19T00:52:23.514Z,12.95
2017-01-19T00:53:32.472Z,12.81
2017-01-19T00:54:41.449Z,12.78
2017-01-19T00:55:50.422Z,12.7
2017-01-19T00:56:59.395Z,12.67
2017-01-19T00:58:08.358Z,12.82
2017-01-19T00:59:17.350Z,12.72
2017-01-19T01:00:26.338Z,12.74
2017-01-19T01:01:35.341Z,12.74
2017-01-19T01:02:44.308Z,12.84
2017-01-19T01:03:53.270Z,12.74
2017-01-19T01:05:02.242Z,12.8
2017-01-19T01:06:11.213Z,12.81
2017-01-19T01:07:20.209Z,12.76
2017-01-19T01:08:29.184Z,12.65
2017-01-19T01:09:38.169Z,12.72
2017-01-19T01:10:47.136Z,12.58
2017-01-19T01:11:56.107Z,12.63
2017-01-19T01:13:05.089Z,12.57
2017-01-19T01:14:14.059Z,12.51
2017-01-19T01:15:23.026Z,12.57
2017-01-19T01:16:31.995Z,12.41
2017-01-19T01:17:40.975Z,12.45
2017-01-19T01:18:49.947Z,12.42
2017-01-19T01:19:58.927Z,12.32
2017-01-19T01:21:07.904Z,12.33
2017-01-19T01:22:16.874Z,12.36
2017-01-19T01:23:25.846Z,12.32
2017-01-19T01:24:34.818Z,12.32
2017-01-19T01:25:43.781Z,12.3
2017-01-19T01:26:52.751Z,12.32
2017-01-19T01:28:01.727Z,12.26
2017-01-19T01:29:10.697Z,12.23
2017-01-19T01:30:19.669Z,12.19
2017-01-19T01:31:28.632Z,12.15
2017-01-19T01:32:37.596Z,12.19
2017-01-19T01:33:46.576Z,12.01
2017-01-19T01:34:55.557Z,11.99
2017-01-19T01:36:04.518Z,12.16
2017-01-19T01:37:13.496Z,12.19
2017-01-19T01:38:22.628Z,12.11
2017-01-19T01:39:31.597Z,12.01
2017-01-19T01:40:40.605Z,11.93
2017-01-19T01:41:49.585Z,11.85
2017-01-19T01:42:58.544Z,11.9
2017-01-19T01:44:07.509Z,11.94
2017-01-19T01:45:16.483Z,11.89
2017-01-19T01:46:25.458Z,11.82
2017-01-19T01:47:34.437Z,12.01
2017-01-19T01:48:43.396Z,11.89
2017-01-19T01:49:52.375Z,11.88
2017-01-19T01:51:01.352Z,11.88
2017-01-19T01:52:10.323Z,11.96
2017-01-19T01:53:19.304Z,11.89
2017-01-19T01:54:28.262Z,11.93
2017-01-19T01:55:37.233Z,11.85
2017-01-19T01:56:46.195Z,11.75
2017-01-19T01:57:55.167Z,11.81
2017-01-19T01:59:04.128Z,11.7
2017-01-19T02:00:13.103Z,11.71
2017-01-19T02:01:22.067Z,11.67
2017-01-19T02:02:31.046Z,11.63
2017-01-19T02:03:40.030Z,11.55
2017-01-19T02:04:48.996Z,11.55
2017-01-19T02:05:58.041Z,11.44
2017-01-19T02:07:07.009Z,11.44
2017-01-19T02:08:15.990Z,11.48
2017-01-19T02:09:24.955Z,11.49
2017-01-19T02:10:33.930Z,11.49
2017-01-19T02:11:42.903Z,11.59
2017-01-19T02:12:51.886Z,11.48
2017-01-19T02:14:00.860Z,11.4
2017-01-19T02:15:09.828Z,11.41
2017-01-19T02:16:18.801Z,11.5
2017-01-19T02:17:27.769Z,11.49
2017-01-19T02:18:36.755Z,11.42
2017-01-19T02:19:45.721Z,11.45
2017-01-19T02:20:54.689Z,11.45
2017-01-19T02:22:03.655Z,11.41
2017-01-19T02:23:12.632Z,11.32
2017-01-19T02:24:21.607Z,11.23
2017-01-19T02:25:30.576Z,11.35
2017-01-19T02:26:39.542Z,11.35
2017-01-19T02:27:48.513Z,11.32
2017-01-19T02:28:57.475Z,11.34
2017-01-19T02:30:06.450Z,11.34
2017-01-19T02:31:15.421Z,11.34
2017-01-19T02:32:24.401Z,11.38
2017-01-19T02:33:33.366Z,11.23
2017-01-19T02:34:42.781Z,11.19
2017-01-19T02:35:51.753Z,11.27
2017-01-19T02:37:00.727Z,11.24
2017-01-19T02:38:09.684Z,11.34
2017-01-19T02:39:18.651Z,11.31
2017-01-19T02:40:27.654Z,11.27
2017-01-19T02:41:36.635Z,11.31
2017-01-19T02:42:45.615Z,11.27
2017-01-19T02:43:54.583Z,11.24
2017-01-19T02:45:03.543Z,11.17
2017-01-19T02:46:12.517Z,11.19
2017-01-19T02:47:21.486Z,11.16
2017-01-19T02:48:30.451Z,11.12
2017-01-19T02:49:39.425Z,11.1
2017-01-19T02:50:48.404Z,11.02
2017-01-19T02:51:57.381Z,11.04
2017-01-19T02:53:06.353Z,11.07
2017-01-19T02:54:15.321Z,11.1
2017-01-19T02:55:24.311Z,11.04
2017-01-19T02:56:33.269Z,11.05
2017-01-19T02:57:42.242Z,11.07
2017-01-19T02:58:51.250Z,11.07
2017-01-19T03:00:00.221Z,11.04
2017-01-19T03:01:09.186Z,10.97
2017-01-19T03:02:18.175Z,10.89
2017-01-19T03:03:27.147Z,10.84
2017-01-19T03:04:36.109Z,10.9
2017-01-19T03:05:45.087Z,10.94
2017-01-19T03:06:54.059Z,10.84
2017-01-19T03:08:03.038Z,10.98
2017-01-19T03:09:12.071Z,10.99
2017-01-19T03:10:21.033Z,10.98
2017-01-19T03:11:30.000Z,10.92
2017-01-19T03:12:38.983Z,10.89
2017-01-19T03:13:47.940Z,10.8
2017-01-19T03:14:56.903Z,10.82
2017-01-19T03:16:05.901Z,10.95
2017-01-19T03:17:14.864Z,10.82
2017-01-19T03:18:23.833Z,10.95
2017-01-19T03:19:32.810Z,10.87
2017-01-19T03:20:41.778Z,10.87
2017-01-19T03:21:50.752Z,10.79
2017-01-19T03:22:59.722Z,10.68
2017-01-19T03:24:08.693Z,10.69
2017-01-19T03:25:17.657Z,10.69
2017-01-19T03:26:26.628Z,10.68
2017-01-19T03:27:35.589Z,10.64
2017-01-19T03:28:44.564Z,10.64
2017-01-19T03:29:53.532Z,10.64
2017-01-19T03:31:02.498Z,10.61
2017-01-19T03:32:11.472Z,10.68
2017-01-19T03:33:20.437Z,10.76
2017-01-19T03:34:29.406Z,10.68
2017-01-19T03:35:38.415Z,10.66
2017-01-19T03:36:47.399Z,10.66
2017-01-19T03:37:56.421Z,10.64
2017-01-19T03:39:05.382Z,10.66
2017-01-19T03:40:14.356Z,10.59
2017-01-19T03:41:23.339Z,10.59
2017-01-19T03:42:32.308Z,10.61
2017-01-19T03:43:41.277Z,10.53
2017-01-19T03:44:50.249Z,10.64
2017-01-19T03:45:59.211Z,10.62
2017-01-19T03:47:08.189Z,10.64
2017-01-19T03:48:17.160Z,10.58
2017-01-19T03:49:26.172Z,10.64
2017-01-19T03:50:35.143Z,10.66
2017-01-19T03:51:44.102Z,10.61
2017-01-19T03:52:53.078Z,10.47
2017-01-19T03:54:02.038Z,10.59
2017-01-19T03:55:11.012Z,10.62
2017-01-19T03:56:19.973Z,10.62
2017-01-19T03:57:28.964Z,10.49
2017-01-19T03:58:37.928Z,10.46
2017-01-19T03:59:46.908Z,10.47
2017-01-19T04:00:55.874Z,10.53
2017-01-19T04:02:04.833Z,10.4
2017-01-19T04:03:13.814Z,10.45
2017-01-19T04:04:22.785Z,10.43
2017-01-19T04:05:31.749Z,10.4
2017-01-19T04:06:40.716Z,10.45
2017-01-19T04:07:49.684Z,10.38
2017-01-19T04:08:58.655Z,10.45
2017-01-19T04:10:07.627Z,10.39
2017-01-19T04:11:16.608Z,10.45
2017-01-19T04:12:29.204Z,10.4
2017-01-19T04:13:40.981Z,10.36
2017-01-19T04:14:49.941Z,10.43
2017-01-19T04:15:58.911Z,10.42
2017-01-19T04:17:07.881Z,10.4
2017-01-19T04:18:16.850Z,10.35
2017-01-19T04:19:25.814Z,10.35
2017-01-19T04:20:34.792Z,10.42
2017-01-19T04:21:43.762Z,10.32
2017-01-19T04:22:52.731Z,10.43
2017-01-19T04:24:01.703Z,10.35
2017-01-19T04:25:10.667Z,10.3
2017-01-19T04:26:19.639Z,10.14
2017-01-19T04:27:28.613Z,10.21
2017-01-19T04:28:37.585Z,10.3
2017-01-19T04:29:46.558Z,10.3
2017-01-19T04:30:55.563Z,10.39
2017-01-19T04:32:04.531Z,10.32
2017-01-19T04:33:13.503Z,10.43
2017-01-19T04:34:22.474Z,10.31
2017-01-19T04:35:31.434Z,10.25
2017-01-19T04:36:40.404Z,10.35
2017-01-19T04:37:49.383Z,10.27
2017-01-19T04:38:58.348Z,10.3
2017-01-19T04:40:07.327Z,10.35
2017-01-19T04:41:16.307Z,10.31
2017-01-19T04:42:25.300Z,10.25
2017-01-19T04:43:34.252Z,10.21
2017-01-19T04:44:43.223Z,10.2
2017-01-19T04:45:52.197Z,10.21
2017-01-19T04:47:01.152Z,10.18
2017-01-19T04:48:10.118Z,10.21
2017-01-19T04:49:19.089Z,10.22
2017-01-19T04:50:28.060Z,10.3
2017-01-19T04:51:37.033Z,10.2
2017-01-19T04:52:46.008Z,10.32
2017-01-19T04:53:54.970Z,10.27
2017-01-19T04:55:03.943Z,10.17
2017-01-19T04:56:12.920Z,10.21
2017-01-19T04:57:21.922Z,10.06
2017-01-19T04:58:30.887Z,10.02
2017-01-19T04:59:39.888Z,9.99
2017-01-19T05:00:48.863Z,10.05
2017-01-19T05:01:57.830Z,10.18
2017-01-19T05:03:06.812Z,10.14
2017-01-19T05:04:15.792Z,10.03
2017-01-19T05:05:24.760Z,10.14
2017-01-19T05:06:33.730Z,10.06
2017-01-19T05:07:42.699Z,9.97
2017-01-19T05:08:51.692Z,10.03
2017-01-19T05:10:00.657Z,10.07
2017-01-19T05:11:09.624Z,10.02
2017-01-19T05:12:18.594Z,9.97
2017-01-19T05:13:27.600Z,10.03
2017-01-19T05:14:36.741Z,9.94
2017-01-19T05:15:46.996Z,10
2017-01-19T05:16:55.981Z,10.03
2017-01-19T05:18:04.954Z,9.95
2017-01-19T05:19:13.917Z,10.09
2017-01-19T05:20:22.885Z,10.07
2017-01-19T05:21:31.881Z,10.06
2017-01-19T05:22:40.853Z,9.95
2017-01-19T05:23:49.828Z,9.94
2017-01-19T05:24:58.809Z,9.87
2017-01-19T05:26:07.772Z,9.94
2017-01-19T05:27:16.739Z,9.91
2017-01-19T05:28:25.706Z,9.91
2017-01-19T05:29:34.701Z,10
2017-01-19T05:30:43.672Z,9.95
2017-01-19T05:31:52.647Z,9.89
2017-01-19T05:33:01.607Z,9.84
2017-01-19T05:34:10.578Z,9.95
2017-01-19T05:35:19.549Z,9.95
2017-01-19T05:36:28.505Z,9.89
2017-01-19T05:37:37.485Z,9.91
2017-01-19T05:38:46.498Z,9.87
2017-01-19T05:39:55.463Z,9.92
2017-01-19T05:41:04.444Z,9.84
2017-01-19T05:42:13.425Z,9.88
2017-01-19T05:43:22.395Z,9.81
2017-01-19T05:44:31.356Z,9.88
2017-01-19T05:45:40.327Z,9.82
2017-01-19T05:46:49.315Z,9.88
2017-01-19T05:47:58.279Z,9.73
2017-01-19T05:49:07.251Z,9.87
2017-01-19T05:50:16.218Z,9.77
2017-01-19T05:51:25.194Z,9.76
2017-01-19T05:52:34.388Z,9.77
2017-01-19T05:53:43.390Z,9.76
2017-01-19T05:54:52.358Z,9.73
2017-01-19T05:56:01.337Z,9.64
2017-01-19T05:57:10.306Z,9.64
2017-01-19T05:58:19.272Z,9.69
2017-01-19T05:59:28.248Z,9.69
2017-01-19T06:00:37.208Z,9.76
2017-01-19T06:01:46.176Z,9.73
2017-01-19T06:02:55.145Z,9.67
2017-01-19T06:04:04.159Z,9.79
2017-01-19T06:05:13.132Z,9.82
2017-01-19T06:06:22.090Z,9.77
2017-01-19T06:07:31.066Z,9.71
2017-01-19T06:08:40.046Z,9.71
2017-01-19T06:09:49.010Z,10.35
2017-01-19T06:10:57.992Z,11.02
2017-01-19T06:12:06.970Z,11.42
2017-01-19T06:13:15.933Z,11.78
2017-01-19T06:14:24.902Z,12
2017-01-19T06:15:33.881Z,12.21
2017-01-19T06:16:42.872Z,12.29
2017-01-19T06:17:51.837Z,12.37
2017-01-19T06:19:00.804Z,12.42
2017-01-19T06:20:09.764Z,12.41
2017-01-19T06:21:18.745Z,12.44
2017-01-19T06:22:27.714Z,12.49
2017-01-19T06:23:36.835Z,12.3
2017-01-19T06:24:45.809Z,12.27
2017-01-19T06:25:54.771Z,12.14
2017-01-19T06:27:03.751Z,12.3
2017-01-19T06:28:12.721Z,12.42
2017-01-19T06:29:21.698Z,12.51
2017-01-19T06:30:30.656Z,12.54
2017-01-19T06:31:39.621Z,12.65
2017-01-19T06:32:48.593Z,12.63
2017-01-19T06:33:57.573Z,12.7
2017-01-19T06:35:06.546Z,12.66
2017-01-19T06:36:15.520Z,12.72
2017-01-19T06:37:24.483Z,12.67
2017-01-19T06:38:33.443Z,12.7
2017-01-19T06:39:42.421Z,12.82
2017-01-19T06:40:51.423Z,12.91
2017-01-19T06:42:00.404Z,12.82
2017-01-19T06:43:09.382Z,12.9
2017-01-19T06:44:18.352Z,12.94
2017-01-19T06:45:27.308Z,13.06
2017-01-19T06:46:36.311Z,13.09
2017-01-19T06:47:45.280Z,13.12
2017-01-19T06:48:54.278Z,13.15
2017-01-19T06:50:03.249Z,13.2
2017-01-19T06:51:12.203Z,13.24
2017-01-19T06:52:21.168Z,13.25
2017-01-19T06:53:30.242Z,13.27
2017-01-19T06:54:39.211Z,13.3
2017-01-19T06:55:48.191Z,13.4
2017-01-19T06:56:57.161Z,13.43
2017-01-19T06:58:06.118Z,13.4
2017-01-19T06:59:15.103Z,13.5
2017-01-19T07:00:24.087Z,13.51
2017-01-19T07:01:33.049Z,13.41
2017-01-19T07:02:42.026Z,13.51
2017-01-19T07:03:51.002Z,13.44
2017-01-19T07:04:59.976Z,13.47
2017-01-19T07:06:08.939Z,13.43
2017-01-19T07:07:17.918Z,13.46
2017-01-19T07:08:26.893Z,13.54
2017-01-19T07:09:35.893Z,13.44
2017-01-19T07:10:44.871Z,13.47
2017-01-19T07:11:53.844Z,13.51
2017-01-19T07:13:02.815Z,13.51
2017-01-19T07:14:11.790Z,13.64
2017-01-19T07:15:20.750Z,13.59
2017-01-19T07:16:29.723Z,13.69
2017-01-19T07:17:38.692Z,13.66
2017-01-19T07:18:47.683Z,13.79
2017-01-19T07:19:56.678Z,13.77
2017-01-19T07:21:05.662Z,13.65
2017-01-19T07:22:14.640Z,13.76
2017-01-19T07:23:23.610Z,13.73
2017-01-19T07:24:32.574Z,13.73
2017-01-19T07:25:41.552Z,13.72
2017-01-19T07:26:50.532Z,13.66
2017-01-19T07:27:59.496Z,13.74
2017-01-19T07:29:08.474Z,13.72
2017-01-19T07:30:17.445Z,13.77
2017-01-19T07:31:26.418Z,13.72
2017-01-19T07:32:35.408Z,13.77
2017-01-19T07:33:44.372Z,13.79
2017-01-19T07:34:53.387Z,13.73
2017-01-19T07:36:02.366Z,13.86
2017-01-19T07:37:11.336Z,13.84
2017-01-19T07:38:20.319Z,13.8
2017-01-19T07:39:29.291Z,13.91
2017-01-19T07:40:38.256Z,13.95
2017-01-19T07:41:47.240Z,14.01
2017-01-19T07:42:56.234Z,14.01
2017-01-19T07:44:05.234Z,13.98
2017-01-19T07:45:14.208Z,13.98
2017-01-19T07:46:23.177Z,14.09
2017-01-19T07:47:32.165Z,14.02
2017-01-19T07:48:41.139Z,14.14
2017-01-19T07:49:50.103Z,14.09
2017-01-19T07:50:59.084Z,14.13
2017-01-19T07:52:08.070Z,14.09
2017-01-19T07:53:17.046Z,14.19
2017-01-19T07:54:26.014Z,14.2
2017-01-19T07:55:34.985Z,14.23
2017-01-19T07:56:43.970Z,14.28
2017-01-19T07:57:52.945Z,14.34
2017-01-19T07:59:01.917Z,14.35
2017-01-19T08:00:10.897Z,14.35
2017-01-19T08:01:19.879Z,14.39
2017-01-19T08:02:28.861Z,14.41
2017-01-19T08:03:37.820Z,14.47
2017-01-19T08:04:46.814Z,14.47
2017-01-19T08:05:55.781Z,14.44
2017-01-19T08:07:04.751Z,14.42
2017-01-19T08:08:13.720Z,14.52
2017-01-19T08:09:22.699Z,14.52
2017-01-19T08:10:31.674Z,14.57
2017-01-19T08:11:40.646Z,14.62
2017-01-19T08:12:49.637Z,14.62
2017-01-19T08:13:58.612Z,14.6
2017-01-19T08:15:07.778Z,14.63
2017-01-19T08:16:16.750Z,14.68
2017-01-19T08:17:25.743Z,14.63
2017-01-19T08:18:34.710Z,14.68
2017-01-19T08:19:43.731Z,14.68
2017-01-19T08:20:52.708Z,14.62
2017-01-19T08:22:01.689Z,14.62
2017-01-19T08:23:10.666Z,14.72
2017-01-19T08:24:19.641Z,14.84
2017-01-19T08:25:28.609Z,14.8
2017-01-19T08:26:37.595Z,14.82
2017-01-19T08:27:46.564Z,14.9
2017-01-19T08:28:55.538Z,14.8
2017-01-19T08:30:04.512Z,14.91
2017-01-19T08:31:13.484Z,14.91
2017-01-19T08:32:22.461Z,14.97
2017-01-19T08:33:31.446Z,14.96
2017-01-19T08:34:40.414Z,14.88
2017-01-19T08:35:49.377Z,15
2017-01-19T08:36:58.353Z,15.01
2017-01-19T08:38:07.318Z,14.96
2017-01-19T08:39:16.300Z,14.98
2017-01-19T08:40:25.284Z,15.05
2017-01-19T08:41:34.276Z,15.05
2017-01-19T08:42:43.248Z,15.09
2017-01-19T08:43:52.226Z,15.12
2017-01-19T08:45:01.204Z,15.18
2017-01-19T08:46:10.193Z,15.13
2017-01-19T08:47:19.176Z,15.23
2017-01-19T08:48:28.169Z,15.34
2017-01-19T08:49:37.241Z,15.16
2017-01-19T08:50:46.579Z,14.87
2017-01-19T08:51:55.554Z,14.84
2017-01-19T08:53:04.535Z,15.04
2017-01-19T08:54:13.521Z,14.79
2017-01-19T08:55:22.495Z,14.63
2017-01-19T08:56:31.472Z,14.71
2017-01-19T08:57:40.441Z,14.8
2017-01-19T08:58:49.407Z,15.15
2017-01-19T08:59:58.392Z,15.01
2017-01-19T09:01:07.363Z,14.82
2017-01-19T09:02:16.329Z,14.7
2017-01-19T09:03:25.290Z,14.8
2017-01-19T09:04:34.280Z,14.96
2017-01-19T09:05:43.261Z,15.08
2017-01-19T09:06:52.237Z,15
2017-01-19T09:08:01.203Z,14.97
2017-01-19T09:09:10.184Z,15.06
2017-01-19T09:10:19.163Z,14.96
2017-01-19T09:11:28.142Z,14.78
2017-01-19T09:12:37.124Z,14.62
2017-01-19T09:13:46.090Z,14.65
2017-01-19T09:14:55.091Z,14.68
2017-01-19T09:16:04.066Z,14.71
2017-01-19T09:17:13.045Z,14.6
2017-01-19T09:18:22.020Z,14.68
2017-01-19T09:19:30.997Z,14.54
2017-01-19T09:20:39.963Z,14.59
2017-01-19T09:21:48.945Z,14.57
2017-01-19T09:22:57.925Z,14.65
2017-01-19T09:24:06.904Z,14.84
2017-01-19T09:25:15.892Z,14.82
2017-01-19T09:26:24.867Z,14.72
2017-01-19T09:27:33.837Z,14.82
2017-01-19T09:28:42.837Z,14.79
2017-01-19T09:29:51.834Z,14.87
2017-01-19T09:31:00.805Z,14.82
2017-01-19T09:32:09.784Z,14.8
2017-01-19T09:33:18.760Z,14.84
2017-01-19T09:34:27.732Z,14.59
2017-01-19T09:35:36.705Z,14.63
2017-01-19T09:36:45.674Z,14.62
2017-01-19T09:37:54.635Z,14.68
2017-01-19T09:39:03.612Z,14.68
2017-01-19T09:40:12.600Z,14.65
2017-01-19T09:41:21.571Z,14.62
2017-01-19T09:42:30.551Z,14.57
2017-01-19T09:43:39.520Z,14.52
2017-01-19T09:44:48.506Z,14.6
2017-01-19T09:45:57.486Z,14.59
2017-01-19T09:47:06.448Z,14.63
2017-01-19T09:48:15.425Z,14.57
2017-01-19T09:49:24.408Z,14.6
2017-01-19T09:50:33.414Z,14.68
2017-01-19T09:51:42.384Z,14.68
2017-01-19T09:52:51.359Z,14.71
2017-01-19T09:54:00.326Z,14.57
2017-01-19T09:55:09.323Z,14.57
2017-01-19T09:56:18.307Z,14.68
2017-01-19T09:57:27.279Z,14.74
2017-01-19T09:58:36.258Z,14.62
2017-01-19T09:59:45.228Z,14.62
2017-01-19T10:00:54.188Z,14.5
2017-01-19T10:02:03.177Z,14.54
2017-01-19T10:03:12.159Z,14.6
2017-01-19T10:04:21.417Z,14.68
2017-01-19T10:05:30.395Z,14.68
2017-01-19T10:06:39.388Z,14.82
2017-01-19T10:07:48.356Z,14.63
2017-01-19T10:08:57.332Z,14.67
2017-01-19T10:10:06.316Z,14.71
2017-01-19T10:11:15.279Z,14.84
2017-01-19T10:12:24.254Z,14.7
2017-01-19T10:13:33.234Z,14.57
2017-01-19T10:14:42.211Z,14.56
2017-01-19T10:15:51.189Z,14.59
2017-01-19T10:17:00.165Z,14.62
2017-01-19T10:18:09.141Z,14.59
2017-01-19T10:19:18.105Z,14.53
2017-01-19T10:20:27.088Z,14.84
2017-01-19T10:21:36.056Z,14.8
2017-01-19T10:22:45.039Z,14.88
2017-01-19T10:23:54.016Z,14.71
2017-01-19T10:25:02.977Z,14.56
2017-01-19T10:26:11.959Z,14.65
2017-01-19T10:27:20.935Z,14.6
2017-01-19T10:28:29.912Z,14.5
2017-01-19T10:29:38.882Z,14.47
2017-01-19T10:30:47.850Z,14.59
2017-01-19T10:31:56.833Z,14.37
2017-01-19T10:33:05.799Z,14.46
2017-01-19T10:34:14.784Z,14.41
2017-01-19T10:35:23.767Z,14.31
2017-01-19T10:36:32.754Z,14.38
2017-01-19T10:37:41.727Z,14.42
2017-01-19T10:38:50.693Z,14.59
2017-01-19T10:39:59.676Z,14.65
2017-01-19T10:41:08.655Z,14.53
2017-01-19T10:42:17.618Z,14.42
2017-01-19T10:43:26.593Z,14.47
2017-01-19T10:44:35.559Z,14.49
2017-01-19T10:45:44.540Z,14.47
2017-01-19T10:46:53.512Z,14.53
2017-01-19T10:48:02.494Z,14.7
2017-01-19T10:49:11.477Z,14.59
2017-01-19T10:50:20.449Z,14.63
2017-01-19T10:51:29.428Z,14.65
2017-01-19T10:52:38.531Z,14.54
2017-01-19T10:53:47.506Z,14.59
2017-01-19T10:54:56.483Z,14.57
2017-01-19T10:56:05.460Z,14.42
2017-01-19T10:57:14.428Z,14.22
2017-01-19T10:58:23.407Z,14.41
2017-01-19T10:59:32.387Z,14.44
2017-01-19T11:00:41.357Z,14.68
2017-01-19T11:01:50.738Z,14.6
2017-01-19T11:02:59.711Z,14.68
2017-01-19T11:04:08.678Z,14.68
2017-01-19T11:05:17.652Z,14.67
2017-01-19T11:06:26.628Z,14.53
2017-01-19T11:07:35.600Z,14.54
2017-01-19T11:08:44.573Z,14.42
2017-01-19T11:09:53.555Z,14.42
2017-01-19T11:11:02.527Z,14.42
2017-01-19T11:12:11.499Z,14.47
2017-01-19T11:13:20.465Z,14.34
2017-01-19T11:14:29.430Z,14.49
2017-01-19T11:15:38.407Z,14.44
2017-01-19T11:16:47.401Z,14.63
2017-01-19T11:17:56.382Z,14.59
2017-01-19T11:19:05.357Z,14.53
2017-01-19T11:20:14.326Z,14.6
2017-01-19T11:21:23.299Z,14.71
2017-01-19T11:22:32.411Z,14.71
2017-01-19T11:23:41.417Z,14.71
2017-01-19T11:24:50.384Z,14.65
2017-01-19T11:25:59.346Z,14.82
2017-01-19T11:27:08.325Z,14.71
2017-01-19T11:28:17.299Z,14.72
2017-01-19T11:29:26.283Z,14.79
2017-01-19T11:30:35.246Z,14.86
2017-01-19T11:31:44.248Z,14.8
2017-01-19T11:32:53.212Z,14.79
2017-01-19T11:34:02.192Z,14.79
2017-01-19T11:35:11.160Z,14.79
2017-01-19T11:36:20.141Z,14.68
2017-01-19T11:37:29.104Z,14.65
2017-01-19T11:38:38.076Z,14.75
2017-01-19T11:39:47.053Z,14.84
2017-01-19T11:40:56.030Z,14.63
2017-01-19T11:42:05.003Z,14.78
2017-01-19T11:43:13.980Z,14.84
2017-01-19T11:44:22.940Z,14.79
2017-01-19T11:45:31.924Z,14.88
2017-01-19T11:46:40.894Z,14.84
2017-01-19T11:47:49.872Z,14.87
2017-01-19T11:48:58.838Z,14.86
2017-01-19T11:50:07.819Z,14.84
2017-01-19T11:51:16.788Z,14.82
2017-01-19T11:52:25.778Z,14.84
2017-01-19T11:53:35.125Z,14.9
2017-01-19T11:54:44.119Z,14.94
2017-01-19T11:55:53.102Z,14.87
2017-01-19T11:57:02.073Z,15.05
2017-01-19T11:58:11.049Z,15.05
2017-01-19T11:59:20.032Z,15.08
2017-01-19T12:00:29.004Z,15.04
2017-01-19T12:01:37.980Z,15.16
2017-01-19T12:02:46.948Z,15.08
2017-01-19T12:03:55.925Z,15.06
2017-01-19T12:05:04.916Z,15.06
2017-01-19T12:06:13.892Z,15.06
2017-01-19T12:07:22.876Z,15.01
2017-01-19T12:08:31.845Z,15.06
2017-01-19T12:09:40.819Z,15.05
2017-01-19T12:10:49.795Z,15.11
2017-01-19T12:11:58.764Z,15.16
2017-01-19T12:13:07.755Z,15.13
2017-01-19T12:14:16.732Z,15.21
2017-01-19T12:15:25.705Z,15.08
2017-01-19T12:16:34.672Z,15.04
2017-01-19T12:17:43.652Z,15.12
2017-01-19T12:18:52.621Z,15.24
2017-01-19T12:20:01.606Z,15.12
2017-01-19T12:21:10.599Z,15.19
2017-01-19T12:22:19.570Z,15.12
2017-01-19T12:23:28.544Z,15.19
2017-01-19T12:24:37.532Z,15.16
2017-01-19T12:25:46.493Z,15.16
2017-01-19T12:26:55.458Z,15.15
2017-01-19T12:28:04.443Z,15.11
2017-01-19T12:29:13.422Z,15.15
2017-01-19T12:30:22.390Z,15.15
2017-01-19T12:31:31.373Z,15.15
2017-01-19T12:32:40.336Z,15.12
2017-01-19T12:33:49.320Z,15.13
2017-01-19T12:34:58.289Z,15.3
2017-01-19T12:36:07.284Z,15.21
2017-01-19T12:37:16.259Z,15.11
2017-01-19T12:38:25.252Z,15.09
2017-01-19T12:39:34.222Z,15.05
2017-01-19T12:40:43.188Z,15.08
2017-01-19T12:41:52.175Z,15.13
2017-01-19T12:43:01.151Z,15.3
2017-01-19T12:44:10.114Z,15.27
2017-01-19T12:45:19.105Z,15.3
2017-01-19T12:46:28.083Z,15.3
2017-01-19T12:47:37.051Z,15.27
2017-01-19T12:48:46.043Z,15.33
2017-01-19T12:49:55.011Z,15.19
2017-01-19T12:51:03.991Z,15.15
2017-01-19T12:52:12.956Z,15.26
2017-01-19T12:53:21.928Z,15.26
2017-01-19T12:54:30.898Z,15.21
2017-01-19T12:55:39.875Z,15.27
2017-01-19T12:56:48.843Z,15.27
2017-01-19T12:57:57.826Z,15.36
2017-01-19T12:59:06.809Z,15.26
2017-01-19T13:00:15.793Z,15.31
2017-01-19T13:01:25.172Z,15.21
2017-01-19T13:02:34.147Z,15.21
2017-01-19T13:03:43.124Z,15.23
2017-01-19T13:04:52.103Z,15.15
2017-01-19T13:06:01.069Z,15.31
2017-01-19T13:07:10.042Z,15.26
2017-01-19T13:08:19.024Z,15.06
2017-01-19T13:09:27.998Z,15.12
2017-01-19T13:10:36.963Z,15.12
2017-01-19T13:11:45.927Z,15.06
2017-01-19T13:12:54.910Z,15.01
2017-01-19T13:14:03.884Z,15.13
2017-01-19T13:15:12.860Z,15.19
2017-01-19T13:16:21.861Z,15.23
2017-01-19T13:17:30.839Z,15.3
2017-01-19T13:18:39.799Z,15.31
2017-01-19T13:19:49.191Z,15.12
2017-01-19T13:20:58.174Z,15.19
2017-01-19T13:22:07.139Z,15.27
2017-01-19T13:23:16.115Z,15.27
2017-01-19T13:24:25.105Z,15.12
2017-01-19T13:25:34.070Z,15.12
2017-01-19T13:26:43.048Z,15.06
2017-01-19T13:27:52.022Z,14.94
2017-01-19T13:29:00.997Z,14.96
2017-01-19T13:30:09.963Z,14.82
2017-01-19T13:31:18.944Z,14.8
2017-01-19T13:32:27.904Z,15.05
2017-01-19T13:33:36.889Z,15.05
2017-01-19T13:34:45.868Z,15.04
2017-01-19T13:35:54.838Z,15.11
2017-01-19T13:37:03.813Z,15.12
2017-01-19T13:38:12.780Z,15.23
2017-01-19T13:39:21.762Z,15.28
2017-01-19T13:40:31.169Z,15.26
2017-01-19T13:41:40.161Z,15.26
2017-01-19T13:42:49.132Z,15.24
2017-01-19T13:43:58.132Z,15.31
2017-01-19T13:45:07.103Z,15.23
2017-01-19T13:46:16.088Z,15.06
2017-01-19T13:47:25.060Z,15.05
2017-01-19T13:48:34.047Z,15.13
2017-01-19T13:49:43.098Z,15.09
2017-01-19T13:50:52.071Z,15.13
2017-01-19T13:52:01.054Z,15.24
2017-01-19T13:53:10.028Z,15.15
2017-01-19T13:54:19.005Z,15.12
2017-01-19T13:55:28.380Z,14.93
2017-01-19T13:56:37.956Z,14.57
2017-01-19T13:57:47.674Z,14.57
2017-01-19T13:58:57.817Z,14.44
2017-01-19T14:00:07.274Z,14.37
2017-01-19T14:01:16.917Z,14.23
2017-01-19T14:02:26.141Z,14.23
2017-01-19T14:03:35.501Z,14.13
2017-01-19T14:04:45.302Z,14.06
2017-01-19T14:05:54.600Z,13.95
2017-01-19T14:07:03.587Z,13.94
2017-01-19T14:08:12.574Z,13.97
2017-01-19T14:09:21.690Z,13.81
2017-01-19T14:10:31.396Z,13.91
2017-01-19T14:11:40.844Z,13.86
2017-01-19T14:12:50.616Z,13.91
2017-01-19T14:13:59.806Z,13.79
2017-01-19T14:15:09.036Z,13.77
2017-01-19T14:16:18.931Z,13.8
2017-01-19T14:17:28.335Z,13.77
2017-01-19T14:18:37.497Z,13.69
2017-01-19T14:19:47.559Z,13.68
2017-01-19T14:20:57.216Z,14.01
2017-01-19T14:22:06.597Z,14.16
2017-01-19T14:23:15.720Z,14.41
2017-01-19T14:24:24.742Z,14.67
2017-01-19T14:25:33.730Z,14.63
2017-01-19T14:26:42.720Z,14.59
2017-01-19T14:27:51.703Z,14.84
2017-01-19T14:29:00.696Z,14.82
2017-01-19T14:30:09.682Z,14.71
2017-01-19T14:31:18.678Z,14.79
2017-01-19T14:32:27.648Z,14.82
2017-01-19T14:33:36.637Z,14.84
2017-01-19T14:34:45.624Z,14.82
2017-01-19T14:35:54.610Z,14.8
2017-01-19T14:37:03.596Z,14.68
2017-01-19T14:38:12.572Z,14.6
2017-01-19T14:39:21.558Z,14.42
2017-01-19T14:40:30.545Z,14.32
2017-01-19T14:41:39.539Z,14.22
2017-01-19T14:42:48.540Z,14.35
2017-01-19T14:43:57.532Z,14.38
2017-01-19T14:45:06.558Z,14.52
2017-01-19T14:46:15.543Z,14.46
2017-01-19T14:47:24.523Z,14.22
2017-01-19T14:48:33.506Z,13.97
2017-01-19T14:50:12.191Z,13.76
2017-01-19T14:51:21.188Z,13.73
2017-01-19T14:52:30.232Z,13.51
2017-01-19T14:53:39.639Z,13.47